sensor_id;sensor_type;location;lat;lon;timestamp;pressure;altitude;pressure_sealevel;temperature;humidity
10587;BME280;5341;47.606;7.576;2023-04-19T00:00:15;99142.66;;;14.38;55.96
10587;BME280;5341;47.606;7.576;2023-04-19T00:02:43;99143.06;;;14.35;56.02
10587;BME280;5341;47.606;7.576;2023-04-19T00:05:14;99139.75;;;14.33;56.23
10587;BME280;5341;47.606;7.576;2023-04-19T00:07:44;99140.78;;;14.32;56.05
10587;BME280;5341;47.606;7.576;2023-04-19T00:10:14;99140.16;;;14.30;55.97
10587;BME280;5341;47.606;7.576;2023-04-19T00:12:45;99145.69;;;14.28;56.02
10587;BME280;5341;47.606;7.576;2023-04-19T00:15:14;99144.25;;;14.26;56.00
10587;BME280;5341;47.606;7.576;2023-04-19T00:17:41;99146.31;;;14.24;55.90
10587;BME280;5341;47.606;7.576;2023-04-19T00:20:10;99139.25;;;14.23;56.07
10587;BME280;5341;47.606;7.576;2023-04-19T00:22:37;99145.03;;;14.20;55.95
10587;BME280;5341;47.606;7.576;2023-04-19T00:25:06;99137.16;;;14.18;55.97
10587;BME280;5341;47.606;7.576;2023-04-19T00:27:36;99140.84;;;14.17;55.96
10587;BME280;5341;47.606;7.576;2023-04-19T00:30:05;99140.22;;;14.15;55.94
10587;BME280;5341;47.606;7.576;2023-04-19T00:32:36;99143.13;;;14.14;55.86
10587;BME280;5341;47.606;7.576;2023-04-19T00:35:05;99137.31;;;14.10;55.73
10587;BME280;5341;47.606;7.576;2023-04-19T00:37:33;99137.50;;;14.08;55.89
10587;BME280;5341;47.606;7.576;2023-04-19T00:40:01;99141.22;;;14.07;56.00
10587;BME280;5341;47.606;7.576;2023-04-19T00:42:31;99146.97;;;14.04;55.89
10587;BME280;5341;47.606;7.576;2023-04-19T00:45:01;99140.97;;;14.02;55.68
10587;BME280;5341;47.606;7.576;2023-04-19T00:47:30;99140.34;;;14.00;55.82
10587;BME280;5341;47.606;7.576;2023-04-19T00:50:00;99142.38;;;13.98;55.90
10587;BME280;5341;47.606;7.576;2023-04-19T00:52:28;99139.91;;;13.97;55.69
10587;BME280;5341;47.606;7.576;2023-04-19T00:54:57;99136.56;;;13.95;55.77
10587;BME280;5341;47.606;7.576;2023-04-19T00:57:27;99139.47;;;13.93;55.79
10587;BME280;5341;47.606;7.576;2023-04-19T00:59:56;99140.66;;;13.91;55.53
10587;BME280;5341;47.606;7.576;2023-04-19T01:02:26;99128.25;;;13.90;55.66
10587;BME280;5341;47.606;7.576;2023-04-19T01:04:54;99142.91;;;13.87;55.66
10587;BME280;5341;47.606;7.576;2023-04-19T01:07:22;99135.03;;;13.86;55.49
10587;BME280;5341;47.606;7.576;2023-04-19T01:09:50;99131.72;;;13.84;55.56
10587;BME280;5341;47.606;7.576;2023-04-19T01:12:20;99145.53;;;13.81;55.83
10587;BME280;5341;47.606;7.576;2023-04-19T01:14:49;99134.97;;;13.79;55.52
10587;BME280;5341;47.606;7.576;2023-04-19T01:17:18;99129.78;;;13.77;55.57
10587;BME280;5341;47.606;7.576;2023-04-19T01:19:58;99141.78;;;13.75;55.78
10587;BME280;5341;47.606;7.576;2023-04-19T01:22:28;99136.59;;;13.73;55.75
10587;BME280;5341;47.606;7.576;2023-04-19T01:24:57;99119.84;;;13.71;55.60
10587;BME280;5341;47.606;7.576;2023-04-19T01:27:25;99127.25;;;13.69;55.72
10587;BME280;5341;47.606;7.576;2023-04-19T01:29:53;99129.28;;;13.67;55.75
10587;BME280;5341;47.606;7.576;2023-04-19T01:32:25;99121.41;;;13.66;55.82
10587;BME280;5341;47.606;7.576;2023-04-19T01:34:55;99124.69;;;13.61;55.73
10587;BME280;5341;47.606;7.576;2023-04-19T01:37:24;99117.84;;;13.59;55.63
10587;BME280;5341;47.606;7.576;2023-04-19T01:39:53;99118.88;;;13.58;55.63
10587;BME280;5341;47.606;7.576;2023-04-19T01:42:21;99124.25;;;13.58;55.70
10587;BME280;5341;47.606;7.576;2023-04-19T01:44:49;99113.88;;;13.55;55.46
10587;BME280;5341;47.606;7.576;2023-04-19T01:47:16;99129.38;;;13.53;55.55
10587;BME280;5341;47.606;7.576;2023-04-19T01:49:44;99119.63;;;13.52;55.64
10587;BME280;5341;47.606;7.576;2023-04-19T01:52:11;99109.91;;;13.51;55.66
10587;BME280;5341;47.606;7.576;2023-04-19T01:54:38;99109.28;;;13.48;55.63
10587;BME280;5341;47.606;7.576;2023-04-19T01:57:08;99106.78;;;13.47;55.40
10587;BME280;5341;47.606;7.576;2023-04-19T01:59:36;99103.28;;;13.46;55.36
10587;BME280;5341;47.606;7.576;2023-04-19T02:02:06;99100.78;;;13.45;55.50
10587;BME280;5341;47.606;7.576;2023-04-19T02:04:34;99105.31;;;13.44;55.63
10587;BME280;5341;47.606;7.576;2023-04-19T02:07:05;99101.16;;;13.42;55.38
10587;BME280;5341;47.606;7.576;2023-04-19T02:09:34;99106.72;;;13.40;55.50
10587;BME280;5341;47.606;7.576;2023-04-19T02:12:02;99097.19;;;13.38;55.53
10587;BME280;5341;47.606;7.576;2023-04-19T02:14:31;99108.13;;;13.36;55.15
10587;BME280;5341;47.606;7.576;2023-04-19T02:16:59;99111.22;;;13.33;55.48
10587;BME280;5341;47.606;7.576;2023-04-19T02:19:26;99104.16;;;13.32;55.44
10587;BME280;5341;47.606;7.576;2023-04-19T02:21:54;99109.72;;;13.31;55.41
10587;BME280;5341;47.606;7.576;2023-04-19T02:24:22;99106.41;;;13.29;54.96
10587;BME280;5341;47.606;7.576;2023-04-19T02:26:50;99106.59;;;13.27;55.38
10587;BME280;5341;47.606;7.576;2023-04-19T02:29:18;99105.75;;;13.27;55.23
10587;BME280;5341;47.606;7.576;2023-04-19T02:31:47;99104.94;;;13.26;55.03
10587;BME280;5341;47.606;7.576;2023-04-19T02:34:15;99104.28;;;13.24;55.29
10587;BME280;5341;47.606;7.576;2023-04-19T02:36:43;99101.81;;;13.23;55.02
10587;BME280;5341;47.606;7.576;2023-04-19T02:39:13;99104.69;;;13.21;55.25
10587;BME280;5341;47.606;7.576;2023-04-19T02:41:41;99099.47;;;13.19;55.30
10587;BME280;5341;47.606;7.576;2023-04-19T02:44:09;99100.50;;;13.18;55.08
10587;BME280;5341;47.606;7.576;2023-04-19T02:46:37;99100.66;;;13.17;55.34
10587;BME280;5341;47.606;7.576;2023-04-19T02:49:06;99094.47;;;13.16;55.03
10587;BME280;5341;47.606;7.576;2023-04-19T02:51:34;99102.50;;;13.16;55.36
10587;BME280;5341;47.606;7.576;2023-04-19T02:54:01;99101.03;;;13.14;55.28
10587;BME280;5341;47.606;7.576;2023-04-19T02:56:29;99094.84;;;13.13;55.13
10587;BME280;5341;47.606;7.576;2023-04-19T02:58:59;99094.22;;;13.11;55.08
10587;BME280;5341;47.606;7.576;2023-04-19T03:01:27;99098.94;;;13.09;55.05
10587;BME280;5341;47.606;7.576;2023-04-19T03:03:56;99097.28;;;13.08;54.90
10587;BME280;5341;47.606;7.576;2023-04-19T03:06:25;99103.84;;;13.06;55.22
10587;BME280;5341;47.606;7.576;2023-04-19T03:08:53;99098.66;;;13.04;55.30
10587;BME280;5341;47.606;7.576;2023-04-19T03:11:20;99100.53;;;13.04;54.95
10587;BME280;5341;47.606;7.576;2023-04-19T03:13:48;99098.84;;;13.03;55.02
10587;BME280;5341;47.606;7.576;2023-04-19T03:16:16;99100.06;;;13.00;54.90
10587;BME280;5341;47.606;7.576;2023-04-19T03:18:43;99094.06;;;12.98;55.31
10587;BME280;5341;47.606;7.576;2023-04-19T03:21:11;99099.78;;;12.95;55.30
10587;BME280;5341;47.606;7.576;2023-04-19T03:23:52;99095.44;;;12.94;55.35
10587;BME280;5341;47.606;7.576;2023-04-19T03:26:19;99103.69;;;12.93;55.45
10587;BME280;5341;47.606;7.576;2023-04-19T03:28:51;99104.72;;;12.91;55.08
10587;BME280;5341;47.606;7.576;2023-04-19T03:31:24;99090.47;;;12.91;54.96
10587;BME280;5341;47.606;7.576;2023-04-19T03:33:53;99093.16;;;12.91;55.07
10587;BME280;5341;47.606;7.576;2023-04-19T03:36:27;99091.69;;;12.88;55.33
10587;BME280;5341;47.606;7.576;2023-04-19T03:38:57;99104.09;;;12.89;55.18
10587;BME280;5341;47.606;7.576;2023-04-19T03:41:26;99095.19;;;12.89;55.11
10587;BME280;5341;47.606;7.576;2023-04-19T03:44:07;99089.00;;;12.88;55.16
10587;BME280;5341;47.606;7.576;2023-04-19T03:46:34;99091.03;;;12.86;55.21
10587;BME280;5341;47.606;7.576;2023-04-19T03:49:02;99084.66;;;12.87;55.54
10587;BME280;5341;47.606;7.576;2023-04-19T03:51:32;99099.94;;;12.87;54.95
10587;BME280;5341;47.606;7.576;2023-04-19T03:54:01;99091.03;;;12.86;55.32
10587;BME280;5341;47.606;7.576;2023-04-19T03:56:29;99080.50;;;12.85;55.41
10587;BME280;5341;47.606;7.576;2023-04-19T03:58:56;99083.19;;;12.85;55.29
10587;BME280;5341;47.606;7.576;2023-04-19T04:01:24;99081.50;;;12.84;55.35
10587;BME280;5341;47.606;7.576;2023-04-19T04:03:53;99079.84;;;12.83;55.14
10587;BME280;5341;47.606;7.576;2023-04-19T04:06:21;99087.06;;;12.82;55.29
10587;BME280;5341;47.606;7.576;2023-04-19T04:08:49;99079.00;;;12.82;55.29
10587;BME280;5341;47.606;7.576;2023-04-19T04:11:18;99083.53;;;12.82;55.13
10587;BME280;5341;47.606;7.576;2023-04-19T04:13:47;99083.72;;;12.80;54.91
10587;BME280;5341;47.606;7.576;2023-04-19T04:16:19;99085.59;;;12.80;55.13
10587;BME280;5341;47.606;7.576;2023-04-19T04:18:50;99089.09;;;12.80;55.44
10587;BME280;5341;47.606;7.576;2023-04-19T04:21:20;99084.75;;;12.79;55.13
10587;BME280;5341;47.606;7.576;2023-04-19T04:23:49;99090.31;;;12.78;55.62
10587;BME280;5341;47.606;7.576;2023-04-19T04:26:28;99096.50;;;12.78;55.08
10587;BME280;5341;47.606;7.576;2023-04-19T04:29:19;99093.19;;;12.76;55.22
10587;BME280;5341;47.606;7.576;2023-04-19T04:31:49;99090.50;;;12.76;55.48
10587;BME280;5341;47.606;7.576;2023-04-19T04:34:21;99094.22;;;12.75;55.45
10587;BME280;5341;47.606;7.576;2023-04-19T04:36:56;99089.88;;;12.74;55.60
10587;BME280;5341;47.606;7.576;2023-04-19T04:39:24;99090.88;;;12.73;55.64
10587;BME280;5341;47.606;7.576;2023-04-19T04:41:54;99090.22;;;12.71;55.08
10587;BME280;5341;47.606;7.576;2023-04-19T04:44:24;99089.38;;;12.71;55.12
10587;BME280;5341;47.606;7.576;2023-04-19T04:46:52;99105.50;;;12.71;55.45
10587;BME280;5341;47.606;7.576;2023-04-19T04:49:24;99096.81;;;12.69;55.15
10587;BME280;5341;47.606;7.576;2023-04-19T04:51:53;99097.81;;;12.68;55.34
10587;BME280;5341;47.606;7.576;2023-04-19T04:54:22;99094.50;;;12.66;55.57
10587;BME280;5341;47.606;7.576;2023-04-19T04:56:55;99097.38;;;12.64;54.99
10587;BME280;5341;47.606;7.576;2023-04-19T04:59:23;99092.84;;;12.65;55.13
10587;BME280;5341;47.606;7.576;2023-04-19T05:01:51;99097.56;;;12.63;55.12
10587;BME280;5341;47.606;7.576;2023-04-19T05:04:19;99102.09;;;12.62;55.44
10587;BME280;5341;47.606;7.576;2023-04-19T05:06:47;99104.78;;;12.62;55.09
10587;BME280;5341;47.606;7.576;2023-04-19T05:09:21;99091.56;;;12.60;55.18
10587;BME280;5341;47.606;7.576;2023-04-19T05:11:49;99094.41;;;12.59;55.07
10587;BME280;5341;47.606;7.576;2023-04-19T05:14:18;99092.72;;;12.58;55.17
10587;BME280;5341;47.606;7.576;2023-04-19T05:16:47;99103.66;;;12.56;55.26
10587;BME280;5341;47.606;7.576;2023-04-19T05:19:17;99105.50;;;12.56;54.97
10587;BME280;5341;47.606;7.576;2023-04-19T05:21:51;99103.84;;;12.55;55.01
10587;BME280;5341;47.606;7.576;2023-04-19T05:24:20;99108.38;;;12.54;55.34
10587;BME280;5341;47.606;7.576;2023-04-19T05:26:50;99103.84;;;12.55;55.06
10587;BME280;5341;47.606;7.576;2023-04-19T05:29:19;99104.88;;;12.54;54.95
10587;BME280;5341;47.606;7.576;2023-04-19T05:31:50;99105.69;;;12.54;55.05
10587;BME280;5341;47.606;7.576;2023-04-19T05:34:25;99096.81;;;12.54;55.43
10587;BME280;5341;47.606;7.576;2023-04-19T05:36:56;99114.59;;;12.55;55.64
10587;BME280;5341;47.606;7.576;2023-04-19T05:39:24;99108.19;;;12.56;55.23
10587;BME280;5341;47.606;7.576;2023-04-19T05:41:52;99114.38;;;12.56;55.13
10587;BME280;5341;47.606;7.576;2023-04-19T05:44:21;99111.72;;;12.56;55.67
10587;BME280;5341;47.606;7.576;2023-04-19T05:46:48;99106.16;;;12.58;55.13
10587;BME280;5341;47.606;7.576;2023-04-19T05:49:30;99109.66;;;12.58;55.10
10587;BME280;5341;47.606;7.576;2023-04-19T05:52:14;99113.19;;;12.59;55.31
10587;BME280;5341;47.606;7.576;2023-04-19T05:54:46;99107.66;;;12.60;55.22
10587;BME280;5341;47.606;7.576;2023-04-19T05:57:13;99113.66;;;12.63;55.85
10587;BME280;5341;47.606;7.576;2023-04-19T05:59:43;99104.59;;;12.64;55.48
10587;BME280;5341;47.606;7.576;2023-04-19T06:02:12;99119.66;;;12.65;55.31
10587;BME280;5341;47.606;7.576;2023-04-19T06:04:41;99110.59;;;12.66;55.76
10587;BME280;5341;47.606;7.576;2023-04-19T06:07:09;99104.00;;;12.68;55.64
10587;BME280;5341;47.606;7.576;2023-04-19T06:09:39;99117.25;;;12.70;55.29
10587;BME280;5341;47.606;7.576;2023-04-19T06:12:07;99112.50;;;12.72;55.54
10587;BME280;5341;47.606;7.576;2023-04-19T06:14:34;99112.50;;;12.72;55.36
10587;BME280;5341;47.606;7.576;2023-04-19T06:17:03;99111.34;;;12.74;56.06
10587;BME280;5341;47.606;7.576;2023-04-19T06:19:31;99112.16;;;12.75;55.54
10587;BME280;5341;47.606;7.576;2023-04-19T06:21:59;99119.19;;;12.76;56.24
10587;BME280;5341;47.606;7.576;2023-04-19T06:24:26;99115.28;;;12.78;55.89
10587;BME280;5341;47.606;7.576;2023-04-19T06:26:54;99116.75;;;12.81;56.18
10587;BME280;5341;47.606;7.576;2023-04-19T06:29:22;99127.31;;;12.82;55.98
10587;BME280;5341;47.606;7.576;2023-04-19T06:31:50;99121.75;;;12.84;55.87
10587;BME280;5341;47.606;7.576;2023-04-19T06:34:19;99123.44;;;12.85;56.27
10587;BME280;5341;47.606;7.576;2023-04-19T06:36:46;99127.78;;;12.86;55.94
10587;BME280;5341;47.606;7.576;2023-04-19T06:39:14;99120.38;;;12.88;56.04
10587;BME280;5341;47.606;7.576;2023-04-19T06:41:42;99120.19;;;12.89;56.10
10587;BME280;5341;47.606;7.576;2023-04-19T06:44:11;99114.63;;;12.91;56.59
10587;BME280;5341;47.606;7.576;2023-04-19T06:46:39;99119.59;;;12.94;56.57
10587;BME280;5341;47.606;7.576;2023-04-19T06:49:06;99126.47;;;12.97;56.37
10587;BME280;5341;47.606;7.576;2023-04-19T06:51:37;99126.09;;;13.00;56.73
10587;BME280;5341;47.606;7.576;2023-04-19T06:54:05;99129.22;;;13.03;56.39
10587;BME280;5341;47.606;7.576;2023-04-19T06:56:40;99133.38;;;13.06;56.62
10587;BME280;5341;47.606;7.576;2023-04-19T06:59:11;99138.38;;;13.09;56.29
10587;BME280;5341;47.606;7.576;2023-04-19T07:01:39;99126.44;;;13.11;56.47
10587;BME280;5341;47.606;7.576;2023-04-19T07:04:07;99128.94;;;13.13;56.91
10587;BME280;5341;47.606;7.576;2023-04-19T07:06:36;99120.28;;;13.17;56.97
10587;BME280;5341;47.606;7.576;2023-04-19T07:09:05;99120.97;;;13.19;56.83
10587;BME280;5341;47.606;7.576;2023-04-19T07:11:33;99119.78;;;13.22;56.80
10587;BME280;5341;47.606;7.576;2023-04-19T07:14:00;99119.38;;;13.25;57.13
10587;BME280;5341;47.606;7.576;2023-04-19T07:16:28;99121.69;;;13.28;57.30
10587;BME280;5341;47.606;7.576;2023-04-19T07:18:55;99114.06;;;13.32;57.17
10587;BME280;5341;47.606;7.576;2023-04-19T07:21:23;99118.25;;;13.34;57.49
10587;BME280;5341;47.606;7.576;2023-04-19T07:23:55;99119.50;;;13.38;57.29
10587;BME280;5341;47.606;7.576;2023-04-19T07:26:22;99118.28;;;13.41;57.43
10587;BME280;5341;47.606;7.576;2023-04-19T07:28:50;99117.91;;;13.44;57.66
10587;BME280;5341;47.606;7.576;2023-04-19T07:31:18;99114.84;;;13.47;57.37
10587;BME280;5341;47.606;7.576;2023-04-19T07:33:46;99116.97;;;13.52;57.81
10587;BME280;5341;47.606;7.576;2023-04-19T07:36:13;99110.16;;;13.56;57.36
10587;BME280;5341;47.606;7.576;2023-04-19T07:38:41;99115.19;;;13.59;57.77
10587;BME280;5341;47.606;7.576;2023-04-19T07:41:10;99112.94;;;13.62;57.63
10587;BME280;5341;47.606;7.576;2023-04-19T07:43:37;99109.66;;;13.67;57.58
10587;BME280;5341;47.606;7.576;2023-04-19T07:46:08;99112.59;;;13.72;58.01
10587;BME280;5341;47.606;7.576;2023-04-19T07:48:36;99109.31;;;13.76;58.16
10587;BME280;5341;47.606;7.576;2023-04-19T07:51:08;99109.59;;;13.82;58.26
10587;BME280;5341;47.606;7.576;2023-04-19T07:53:37;99112.50;;;13.87;57.91
10587;BME280;5341;47.606;7.576;2023-04-19T07:56:06;99107.38;;;13.92;57.88
10587;BME280;5341;47.606;7.576;2023-04-19T07:58:37;99110.72;;;13.94;58.01
10587;BME280;5341;47.606;7.576;2023-04-19T08:01:06;99109.91;;;14.00;58.26
10587;BME280;5341;47.606;7.576;2023-04-19T08:03:34;99102.94;;;14.05;57.63
10587;BME280;5341;47.606;7.576;2023-04-19T08:06:02;99103.38;;;14.09;57.33
10587;BME280;5341;47.606;7.576;2023-04-19T08:08:30;99103.81;;;14.13;57.58
10587;BME280;5341;47.606;7.576;2023-04-19T08:10:58;99109.44;;;14.18;57.86
10587;BME280;5341;47.606;7.576;2023-04-19T08:13:26;99100.78;;;14.22;57.62
10587;BME280;5341;47.606;7.576;2023-04-19T08:15:55;99094.78;;;14.27;57.75
10587;BME280;5341;47.606;7.576;2023-04-19T08:18:23;99102.09;;;14.33;57.90
10587;BME280;5341;47.606;7.576;2023-04-19T08:20:51;99101.28;;;14.39;57.89
10587;BME280;5341;47.606;7.576;2023-04-19T08:23:19;99107.94;;;14.43;57.65
10587;BME280;5341;47.606;7.576;2023-04-19T08:25:46;99101.78;;;14.49;58.62
10587;BME280;5341;47.606;7.576;2023-04-19T08:28:14;99098.09;;;14.57;58.11
10587;BME280;5341;47.606;7.576;2023-04-19T08:30:41;99099.16;;;14.62;57.90
10587;BME280;5341;47.606;7.576;2023-04-19T08:33:10;99099.19;;;14.69;58.11
10587;BME280;5341;47.606;7.576;2023-04-19T08:35:38;99091.97;;;14.76;58.25
10587;BME280;5341;47.606;7.576;2023-04-19T08:38:06;99100.72;;;14.85;58.53
10587;BME280;5341;47.606;7.576;2023-04-19T08:40:34;99099.72;;;14.92;58.56
10587;BME280;5341;47.606;7.576;2023-04-19T08:43:04;99097.63;;;15.01;58.74
10587;BME280;5341;47.606;7.576;2023-04-19T08:45:33;99097.47;;;15.09;58.58
10587;BME280;5341;47.606;7.576;2023-04-19T08:48:03;99098.53;;;15.15;58.20
10587;BME280;5341;47.606;7.576;2023-04-19T08:50:33;99087.75;;;15.21;58.11
10587;BME280;5341;47.606;7.576;2023-04-19T08:53:02;99091.53;;;15.27;58.03
10587;BME280;5341;47.606;7.576;2023-04-19T08:55:30;99083.44;;;15.34;58.18
10587;BME280;5341;47.606;7.576;2023-04-19T08:57:58;99088.19;;;15.38;57.63
10587;BME280;5341;47.606;7.576;2023-04-19T09:00:29;99089.25;;;15.44;57.88
10587;BME280;5341;47.606;7.576;2023-04-19T09:02:58;99096.50;;;15.50;57.30
10587;BME280;5341;47.606;7.576;2023-04-19T09:05:25;99094.25;;;15.53;57.35
10587;BME280;5341;47.606;7.576;2023-04-19T09:07:55;99092.41;;;15.61;57.01
10587;BME280;5341;47.606;7.576;2023-04-19T09:10:51;99085.38;;;15.66;56.78
10587;BME280;5341;47.606;7.576;2023-04-19T09:13:20;99088.25;;;15.71;56.77
10587;BME280;5341;47.606;7.576;2023-04-19T09:15:47;99085.59;;;15.78;56.81
10587;BME280;5341;47.606;7.576;2023-04-19T09:18:15;99077.91;;;15.81;56.68
10587;BME280;5341;47.606;7.576;2023-04-19T09:20:43;99081.22;;;15.83;56.38
10587;BME280;5341;47.606;7.576;2023-04-19T09:23:14;99076.44;;;15.86;56.29
10587;BME280;5341;47.606;7.576;2023-04-19T09:25:51;99066.91;;;15.90;56.46
10587;BME280;5341;47.606;7.576;2023-04-19T09:28:19;99071.88;;;15.93;56.54
10587;BME280;5341;47.606;7.576;2023-04-19T09:30:47;99065.44;;;15.94;56.47
10587;BME280;5341;47.606;7.576;2023-04-19T09:33:30;99063.56;;;15.94;56.62
10587;BME280;5341;47.606;7.576;2023-04-19T09:35:59;99061.50;;;15.90;56.01
10587;BME280;5341;47.606;7.576;2023-04-19T09:38:28;99058.00;;;15.89;56.24
10587;BME280;5341;47.606;7.576;2023-04-19T09:41:05;99053.63;;;15.88;56.04
10587;BME280;5341;47.606;7.576;2023-04-19T09:43:33;99061.72;;;15.81;56.25
10587;BME280;5341;47.606;7.576;2023-04-19T09:46:00;99053.00;;;15.79;56.44
10587;BME280;5341;47.606;7.576;2023-04-19T09:48:28;99052.78;;;15.81;56.37
10587;BME280;5341;47.606;7.576;2023-04-19T09:51:00;99051.16;;;15.80;56.48
10587;BME280;5341;47.606;7.576;2023-04-19T09:53:30;99044.91;;;15.79;56.46
10587;BME280;5341;47.606;7.576;2023-04-19T09:56:00;99050.09;;;15.81;56.56
10587;BME280;5341;47.606;7.576;2023-04-19T09:58:27;99042.22;;;15.79;56.71
10587;BME280;5341;47.606;7.576;2023-04-19T10:00:55;99035.19;;;15.78;56.68
10587;BME280;5341;47.606;7.576;2023-04-19T10:03:25;99032.06;;;15.81;56.48
10587;BME280;5341;47.606;7.576;2023-04-19T10:05:56;99038.66;;;15.86;56.97
10587;BME280;5341;47.606;7.576;2023-04-19T10:08:26;99040.16;;;15.88;56.57
10587;BME280;5341;47.606;7.576;2023-04-19T10:10:56;99033.50;;;15.91;56.76
10587;BME280;5341;47.606;7.576;2023-04-19T10:13:25;99031.41;;;15.93;56.72
10587;BME280;5341;47.606;7.576;2023-04-19T10:15:54;99030.78;;;15.97;57.04
10587;BME280;5341;47.606;7.576;2023-04-19T10:18:22;99031.81;;;16.03;57.14
10587;BME280;5341;47.606;7.576;2023-04-19T10:20:57;99026.00;;;16.06;57.05
10587;BME280;5341;47.606;7.576;2023-04-19T10:23:26;99024.94;;;16.07;56.75
10587;BME280;5341;47.606;7.576;2023-04-19T10:25:56;99025.56;;;16.09;56.63
10587;BME280;5341;47.606;7.576;2023-04-19T10:28:27;99019.13;;;16.10;56.61
10587;BME280;5341;47.606;7.576;2023-04-19T10:30:59;99021.41;;;16.13;56.91
10587;BME280;5341;47.606;7.576;2023-04-19T10:33:30;99016.03;;;16.13;56.75
10587;BME280;5341;47.606;7.576;2023-04-19T10:35:58;99016.03;;;16.13;56.69
10587;BME280;5341;47.606;7.576;2023-04-19T10:38:36;99015.81;;;16.15;57.00
10587;BME280;5341;47.606;7.576;2023-04-19T10:41:06;99018.72;;;16.13;56.75
10587;BME280;5341;47.606;7.576;2023-04-19T10:43:40;99016.84;;;16.14;56.48
10587;BME280;5341;47.606;7.576;2023-04-19T10:46:08;99015.19;;;16.13;56.44
10587;BME280;5341;47.606;7.576;2023-04-19T10:48:58;99016.03;;;16.13;56.12
10587;BME280;5341;47.606;7.576;2023-04-19T10:51:30;99005.63;;;16.10;56.39
10587;BME280;5341;47.606;7.576;2023-04-19T10:53:59;99003.97;;;16.09;56.49
10587;BME280;5341;47.606;7.576;2023-04-19T10:56:59;99007.28;;;16.11;56.43
10587;BME280;5341;47.606;7.576;2023-04-19T10:59:33;99003.16;;;16.08;56.63
10587;BME280;5341;47.606;7.576;2023-04-19T11:02:26;98991.31;;;16.09;56.53
10587;BME280;5341;47.606;7.576;2023-04-19T11:04:59;98993.41;;;16.07;56.05
10587;BME280;5341;47.606;7.576;2023-04-19T11:07:36;98990.72;;;16.07;56.34
10587;BME280;5341;47.606;7.576;2023-04-19T11:10:05;98992.34;;;16.08;56.50
10587;BME280;5341;47.606;7.576;2023-04-19T11:12:34;98990.09;;;16.12;56.67
10587;BME280;5341;47.606;7.576;2023-04-19T11:15:02;98985.69;;;16.11;56.42
10587;BME280;5341;47.606;7.576;2023-04-19T11:17:31;98988.41;;;16.11;55.91
10587;BME280;5341;47.606;7.576;2023-04-19T11:19:59;98978.66;;;16.10;55.71
10587;BME280;5341;47.606;7.576;2023-04-19T11:22:31;98982.81;;;16.13;55.62
10587;BME280;5341;47.606;7.576;2023-04-19T11:25:09;98975.56;;;16.13;55.85
10587;BME280;5341;47.606;7.576;2023-04-19T11:27:48;98979.91;;;16.14;55.72
10587;BME280;5341;47.606;7.576;2023-04-19T11:30:18;98968.28;;;16.14;55.60
10587;BME280;5341;47.606;7.576;2023-04-19T11:32:50;98969.94;;;16.15;55.52
10587;BME280;5341;47.606;7.576;2023-04-19T11:35:20;98962.69;;;16.15;55.74
10587;BME280;5341;47.606;7.576;2023-04-19T11:37:48;98959.53;;;16.18;55.49
10587;BME280;5341;47.606;7.576;2023-04-19T11:40:16;98954.75;;;16.20;55.68
10587;BME280;5341;47.606;7.576;2023-04-19T11:42:44;98946.66;;;16.20;55.00
10587;BME280;5341;47.606;7.576;2023-04-19T11:45:23;98945.00;;;16.26;55.45
10587;BME280;5341;47.606;7.576;2023-04-19T11:47:51;98944.78;;;16.27;55.58
10587;BME280;5341;47.606;7.576;2023-04-19T11:50:36;98936.03;;;16.32;55.72
10587;BME280;5341;47.606;7.576;2023-04-19T11:53:12;98940.97;;;16.35;54.29
10587;BME280;5341;47.606;7.576;2023-04-19T11:55:42;98933.31;;;16.38;54.76
10587;BME280;5341;47.606;7.576;2023-04-19T11:58:25;98923.50;;;16.44;54.79
10587;BME280;5341;47.606;7.576;2023-04-19T12:00:55;98922.88;;;16.49;54.76
10587;BME280;5341;47.606;7.576;2023-04-19T12:03:25;98928.44;;;16.54;54.32
10587;BME280;5341;47.606;7.576;2023-04-19T12:05:54;98924.88;;;16.60;54.04
10587;BME280;5341;47.606;7.576;2023-04-19T12:08:33;98922.13;;;16.66;53.80
10587;BME280;5341;47.606;7.576;2023-04-19T12:11:04;98909.03;;;16.70;54.20
10587;BME280;5341;47.606;7.576;2023-04-19T12:13:31;98920.47;;;16.72;54.32
10587;BME280;5341;47.606;7.576;2023-04-19T12:16:01;98923.34;;;16.77;53.77
10587;BME280;5341;47.606;7.576;2023-04-19T12:18:41;98915.63;;;16.81;54.29
10587;BME280;5341;47.606;7.576;2023-04-19T12:21:10;98912.69;;;16.82;53.85
10587;BME280;5341;47.606;7.576;2023-04-19T12:23:38;98918.06;;;16.89;52.88
10587;BME280;5341;47.606;7.576;2023-04-19T12:26:06;98909.91;;;16.95;53.49
10587;BME280;5341;47.606;7.576;2023-04-19T12:28:33;98914.44;;;17.02;53.34
10587;BME280;5341;47.606;7.576;2023-04-19T12:31:02;98910.66;;;17.09;52.97
10587;BME280;5341;47.606;7.576;2023-04-19T12:33:30;98898.13;;;17.15;53.49
10587;BME280;5341;47.606;7.576;2023-04-19T12:35:57;98902.03;;;17.19;54.09
10587;BME280;5341;47.606;7.576;2023-04-19T12:38:25;98903.78;;;17.32;53.09
10587;BME280;5341;47.606;7.576;2023-04-19T12:40:52;98901.16;;;17.43;53.33
10587;BME280;5341;47.606;7.576;2023-04-19T12:43:20;98901.03;;;17.56;52.61
10587;BME280;5341;47.606;7.576;2023-04-19T12:45:47;98898.63;;;17.73;51.95
10587;BME280;5341;47.606;7.576;2023-04-19T12:48:16;98891.63;;;17.84;53.13
10587;BME280;5341;47.606;7.576;2023-04-19T12:50:43;98888.19;;;18.25;52.04
10587;BME280;5341;47.606;7.576;2023-04-19T12:53:11;98894.28;;;18.51;52.29
10587;BME280;5341;47.606;7.576;2023-04-19T12:55:39;98889.53;;;18.64;50.43
10587;BME280;5341;47.606;7.576;2023-04-19T12:58:07;98888.03;;;18.68;50.29
10587;BME280;5341;47.606;7.576;2023-04-19T13:00:34;98887.56;;;18.71;50.05
10587;BME280;5341;47.606;7.576;2023-04-19T13:03:02;98875.78;;;18.66;50.43
10587;BME280;5341;47.606;7.576;2023-04-19T13:05:31;98869.00;;;18.57;50.38
10587;BME280;5341;47.606;7.576;2023-04-19T13:07:58;98871.69;;;18.45;49.75
10587;BME280;5341;47.606;7.576;2023-04-19T13:10:26;98876.00;;;18.34;49.48
10587;BME280;5341;47.606;7.576;2023-04-19T13:12:53;98866.78;;;18.24;49.71
10587;BME280;5341;47.606;7.576;2023-04-19T13:15:22;98865.00;;;18.18;50.59
10587;BME280;5341;47.606;7.576;2023-04-19T13:17:50;98860.47;;;18.11;50.67
10587;BME280;5341;47.606;7.576;2023-04-19T13:20:18;98865.13;;;18.04;50.25
10587;BME280;5341;47.606;7.576;2023-04-19T13:22:47;98854.41;;;17.98;50.69